Time;durP1;ratioP1;P1;durP2;ratioP2;P2;SDS_P1;SDS_P2;PMS_P1;PMS_P2;Temp;Humidity;BMP_temperature;BMP_pressure;BME280_temperature;BME280_humidity;BME280_pressure;Samples;Min_cycle;Max_cycle;Signal;HPM_P1;HPM_P2
2021/08/21 00:00:26;;;;;;;7.93;4.50;;;;;;;18.89;53.05;101340.19;5034374;28;20201;-60
2021/08/21 00:02:52;;;;;;;7.43;4.83;;;;;;;18.69;52.75;101298.59;5034246;28;20182;-60
2021/08/21 00:05:18;;;;;;;6.60;4.57;;;;;;;19.02;52.81;101343.56;5052549;28;20185;-60
2021/08/21 00:07:45;;;;;;;8.70;4.73;;;;;;;19.06;52.21;101332.97;5054061;28;20182;-60
2021/08/21 00:10:11;;;;;;;11.60;5.47;;;;;;;18.30;51.89;101209.78;5054001;28;20181;-60
2021/08/21 00:12:37;;;;;;;9.47;5.40;;;;;;;19.20;52.05;101332.28;5054070;28;20184;-60
2021/08/21 00:15:04;;;;;;;9.83;5.63;;;;;;;19.24;52.29;101347.75;5054115;28;20186;-60
2021/08/21 00:17:30;;;;;;;9.80;6.67;;;;;;;19.29;51.95;101343.53;5073544;28;20238;-60
2021/08/21 00:19:55;;;;;;;9.20;5.90;;;;;;;18.82;51.74;101270.31;5070140;28;20208;-60
2021/08/21 00:22:21;;;;;;;11.57;6.60;;;;;;;19.28;51.56;101342.75;5053901;28;20639;-60
2021/08/21 00:24:46;;;;;;;11.77;6.17;;;;;;;19.18;51.23;101334.81;5053768;28;20254;-60
2021/08/21 00:27:12;;;;;;;13.53;6.83;;;;;;;19.05;51.49;101292.88;5054327;28;20266;-60
2021/08/21 00:29:37;;;;;;;13.73;7.03;;;;;;;19.30;51.10;101328.97;5073747;28;20177;-60
2021/08/21 00:32:04;;;;;;;16.90;6.87;;;;;;;19.36;50.90;101337.56;5073880;28;20209;-60
2021/08/21 00:34:29;;;;;;;11.50;6.47;;;;;;;18.97;50.78;101276.81;5073879;28;20172;-60
2021/08/21 00:36:55;;;;;;;7.87;5.50;;;;;;;19.29;50.79;101335.09;5073539;28;20664;-60
2021/08/21 00:39:20;;;;;;;10.40;5.73;;;;;;;19.28;50.85;101333.50;5073385;28;20167;-60
2021/08/21 00:41:46;;;;;;;8.20;5.60;;;;;;;19.21;49.77;101328.22;5055706;28;20201;-60
2021/08/21 00:44:12;;;;;;;7.93;5.07;;;;;;;19.05;50.08;101314.56;5073305;28;20233;-60
2021/08/21 00:47:00;;;;;;;8.63;5.40;;;;;;;18.51;51.30;101250.91;5073554;28;20560;-60
2021/08/21 00:49:27;;;;;;;10.87;5.50;;;;;;;19.12;51.39;101345.91;5073361;28;20634;-60
2021/08/21 00:51:53;;;;;;;10.20;5.60;;;;;;;19.08;51.05;101342.47;5073322;28;20264;-60
2021/08/21 00:54:18;;;;;;;11.27;5.50;;;;;;;18.76;51.56;101292.66;5073323;28;20208;-60
2021/08/21 00:56:44;;;;;;;8.93;5.80;;;;;;;19.05;51.62;101339.84;5063661;28;20466;-60
2021/08/21 00:59:10;;;;;;;8.73;5.50;;;;;;;18.86;51.35;101313.03;5053143;28;20331;-60
2021/08/21 01:01:35;;;;;;;9.03;5.83;;;;;;;19.04;51.48;101350.28;5053071;28;20213;-60
2021/08/21 01:04:01;;;;;;;10.67;5.87;;;;;;;18.56;51.70;101297.22;5053392;28;20188;-60
2021/08/21 01:06:27;;;;;;;7.53;5.23;;;;;;;18.79;52.18;101361.13;5035157;28;20406;-60
2021/08/21 01:08:52;;;;;;;9.53;5.87;;;;;;;18.68;52.26;101360.84;5053134;28;20245;-60
2021/08/21 01:11:18;;;;;;;9.90;5.63;;;;;;;18.79;52.30;101361.88;5052934;28;20168;-60
2021/08/21 01:13:44;;;;;;;10.93;5.97;;;;;;;18.86;52.22;101358.78;5035246;28;20183;-60
2021/08/21 01:16:09;;;;;;;10.03;5.77;;;;;;;18.56;52.14;101317.66;5061584;28;20188;-60
2021/08/21 01:18:35;;;;;;;9.63;6.07;;;;;;;18.67;52.80;101362.84;5072954;28;20233;-60
2021/08/21 01:21:02;;;;;;;10.17;5.40;;;;;;;18.83;52.41;101364.56;5060902;28;20350;-60
2021/08/21 01:23:28;;;;;;;8.60;5.53;;;;;;;18.54;52.24;101317.34;5034993;28;20325;-60
2021/08/21 01:25:53;;;;;;;9.77;5.87;;;;;;;18.94;52.26;101371.22;5053115;28;20168;-60
2021/08/21 01:28:19;;;;;;;8.90;5.70;;;;;;;18.96;52.23;101370.75;5062530;28;20186;-60
2021/08/21 01:30:45;;;;;;;10.97;6.33;;;;;;;18.83;52.35;101356.88;5071286;28;20189;-60
2021/08/21 01:33:10;;;;;;;8.97;5.27;;;;;;;18.82;52.52;101369.38;5059632;28;20187;-60
2021/08/21 01:35:36;;;;;;;8.40;5.10;;;;;;;18.82;52.31;101365.78;5052671;28;20695;-60
2021/08/21 01:38:01;;;;;;;9.67;5.37;;;;;;;18.86;52.32;101370.00;5052467;28;20218;-60
2021/08/21 01:40:27;;;;;;;9.93;5.27;;;;;;;18.85;52.76;101371.25;5063409;28;20697;-60
2021/08/21 01:42:52;;;;;;;13.37;6.47;;;;;;;18.54;52.86;101324.97;5072200;28;20219;-60
2021/08/21 01:45:18;;;;;;;8.23;6.17;;;;;;;18.24;52.84;101279.00;5058425;28;20184;-60
2021/08/21 01:47:44;;;;;;;12.60;6.63;;;;;;;18.77;52.62;101360.81;5052367;28;20176;-60
2021/08/21 01:50:19;;;;;;;12.10;6.17;;;;;;;18.68;52.74;101360.84;5052292;28;20192;-60
2021/08/21 01:52:46;;;;;;;10.77;6.30;;;;;;;18.66;53.12;101366.91;5052211;28;20161;-60
2021/08/21 01:55:12;;;;;;;9.57;5.70;;;;;;;18.66;53.10;101363.31;5052202;28;20618;-60
2021/08/21 01:57:41;;;;;;;9.67;5.93;;;;;;;18.47;52.68;101326.06;5051991;28;20181;-60
2021/08/21 02:00:08;;;;;;;15.23;6.50;;;;;;;18.37;52.35;101318.91;5034231;28;20605;-60
2021/08/21 02:02:34;;;;;;;8.77;5.73;;;;;;;18.68;52.51;101370.03;5052132;28;20171;-60
2021/08/21 02:04:59;;;;;;;8.77;6.00;;;;;;;18.67;52.54;101362.84;5067378;28;20656;-60
2021/08/21 02:07:25;;;;;;;9.60;5.47;;;;;;;18.61;52.40;101366.75;5071946;28;20236;-60
2021/08/21 02:09:50;;;;;;;10.73;5.50;;;;;;;18.55;52.95;101375.03;5053327;28;20176;-60
2021/08/21 02:12:16;;;;;;;8.07;5.80;;;;;;;18.10;52.74;101302.06;5051941;28;20185;-60
2021/08/21 02:14:42;;;;;;;13.77;6.20;;;;;;;18.58;53.15;101374.09;5051917;28;20175;-60
2021/08/21 02:17:09;;;;;;;20.50;6.77;;;;;;;18.55;53.27;101372.22;5051723;28;20609;-60
2021/08/21 02:19:34;;;;;;;17.07;6.60;;;;;;;18.53;53.25;101377.50;5051414;28;20177;-60
2021/08/21 02:22:01;;;;;;;14.27;6.37;;;;;;;18.52;52.72;101372.41;5053629;28;20193;-60
2021/08/21 02:24:27;;;;;;;16.87;6.03;;;;;;;18.35;53.32;101379.56;5053829;28;20178;-60
2021/08/21 02:26:55;;;;;;;14.47;6.50;;;;;;;18.28;53.93;101377.81;5071594;28;20197;-60
2021/08/21 02:29:21;;;;;;;13.27;6.13;;;;;;;18.34;53.62;101384.41;5052892;28;20181;-60
2021/08/21 02:31:47;;;;;;;12.20;6.37;;;;;;;18.28;53.42;101358.19;5052773;28;20676;-60
2021/08/21 02:34:12;;;;;;;16.00;6.67;;;;;;;18.47;53.24;101384.25;5071776;28;20193;-60
2021/08/21 02:36:39;;;;;;;18.13;6.47;;;;;;;18.50;53.14;101374.88;5071574;28;20295;-60
2021/08/21 02:39:04;;;;;;;11.43;5.80;;;;;;;18.50;53.25;101377.69;5071576;28;20176;-60
2021/08/21 02:41:30;;;;;;;11.20;5.70;;;;;;;18.17;53.05;101338.22;5051398;28;20290;-60
2021/08/21 02:43:55;;;;;;;19.87;6.80;;;;;;;18.37;53.42;101386.25;5050573;28;20722;-60
2021/08/21 02:46:21;;;;;;;34.13;7.93;;;;;;;18.24;53.86;101361.13;5051401;28;20675;-60
2021/08/21 02:48:47;;;;;;;26.13;7.30;;;;;;;18.37;53.61;101380.66;5051373;28;20184;-60
2021/08/21 02:51:12;;;;;;;24.60;6.87;;;;;;;18.28;53.51;101352.56;5051487;28;20188;-60
2021/08/21 02:53:38;;;;;;;11.70;5.67;;;;;;;18.40;53.51;101373.31;5051426;28;20173;-60
2021/08/21 02:56:03;;;;;;;9.47;5.57;;;;;;;18.39;53.57;101380.97;5051416;28;20178;-60
2021/08/21 02:58:29;;;;;;;14.97;5.90;;;;;;;17.99;53.68;101350.19;5051315;28;20177;-60
2021/08/21 03:00:54;;;;;;;14.90;6.33;;;;;;;17.88;53.52;101329.47;5051256;28;20199;-60
2021/08/21 03:03:20;;;;;;;13.70;6.40;;;;;;;18.29;53.66;101396.97;5033429;28;20180;-60
2021/08/21 03:05:46;;;;;;;13.53;6.43;;;;;;;18.29;53.83;101388.56;5051213;28;20175;-60
2021/08/21 03:08:11;;;;;;;14.70;6.83;;;;;;;17.71;53.84;101327.41;5050860;28;20204;-60
2021/08/21 03:10:37;;;;;;;18.53;6.27;;;;;;;17.63;54.43;101331.75;5033321;28;20179;-60
2021/08/21 03:13:04;;;;;;;20.27;6.57;;;;;;;18.13;54.54;101402.13;5051167;28;20672;-60
2021/08/21 03:15:30;;;;;;;18.67;7.37;;;;;;;18.18;53.90;101395.91;5051203;28;20724;-60
2021/08/21 03:17:57;;;;;;;17.70;6.57;;;;;;;18.23;53.75;101403.69;5033465;28;20598;-60
2021/08/21 03:20:22;;;;;;;8.97;5.33;;;;;;;17.96;53.52;101369.97;5051074;28;20747;-60
2021/08/21 03:22:48;;;;;;;13.43;6.13;;;;;;;18.24;53.06;101406.00;5033339;28;20208;-60
2021/08/21 03:25:13;;;;;;;12.00;5.83;;;;;;;18.23;52.99;101411.31;5051186;28;20180;-60
2021/08/21 03:27:39;;;;;;;11.43;5.63;;;;;;;17.79;52.87;101371.50;5051125;28;20173;-60
2021/08/21 03:30:06;;;;;;;11.70;6.30;;;;;;;17.62;53.29;101369.44;5051103;28;20176;-60
2021/08/21 03:32:32;;;;;;;19.97;6.93;;;;;;;17.73;53.56;101400.63;5050887;28;20176;-60
2021/08/21 03:34:58;;;;;;;9.73;5.40;;;;;;;17.67;53.74;101422.09;5050890;28;20195;-60
2021/08/21 03:37:23;;;;;;;11.13;6.13;;;;;;;17.16;54.38;101372.03;5050812;28;20176;-60
2021/08/21 03:39:49;;;;;;;10.00;5.80;;;;;;;17.17;54.62;101401.59;5050949;28;20192;-60
2021/08/21 03:42:15;;;;;;;9.97;5.53;;;;;;;17.27;55.16;101431.22;5050988;28;20219;-60
2021/08/21 03:44:41;;;;;;;10.87;5.60;;;;;;;17.26;55.28;101431.69;5050813;28;20222;-60
2021/08/21 03:47:07;;;;;;;10.70;7.90;;;;;;;17.23;55.71;101441.00;5033288;28;20183;-60
2021/08/21 03:49:33;;;;;;;12.20;7.03;;;;;;;17.21;55.90;101435.09;5050856;28;20176;-60
2021/08/21 03:51:58;;;;;;;10.17;6.30;;;;;;;17.18;56.16;101436.00;5050748;28;20187;-60
2021/08/21 03:54:24;;;;;;;12.10;5.97;;;;;;;17.13;55.94;101440.19;5033369;28;20201;-60
2021/08/21 03:56:49;;;;;;;8.67;6.00;;;;;;;16.98;56.14;101452.34;5064575;28;20179;-60
2021/08/21 03:59:15;;;;;;;12.53;5.97;;;;;;;16.99;56.36;101437.91;5074576;28;20164;-60
2021/08/21 04:01:40;;;;;;;10.00;5.63;;;;;;;16.93;56.80;101445.34;5074511;28;20210;-60
2021/08/21 04:04:06;;;;;;;10.93;5.80;;;;;;;16.21;57.30;101349.59;5066260;28;20208;-60
2021/08/21 04:06:31;;;;;;;11.23;6.23;;;;;;;16.92;56.73;101434.59;5054301;28;20599;-60
2021/08/21 04:08:57;;;;;;;8.80;5.87;;;;;;;17.00;56.71;101431.06;5054462;28;20187;-60
2021/08/21 04:11:22;;;;;;;10.17;5.83;;;;;;;17.13;56.50;101442.19;5054210;28;20175;-60
2021/08/21 04:13:48;;;;;;;12.60;6.40;;;;;;;17.28;56.25;101460.81;5054352;28;20172;-60
2021/08/21 04:16:13;;;;;;;12.90;6.40;;;;;;;17.24;56.82;101467.75;5054253;28;20626;-60
2021/08/21 04:18:39;;;;;;;10.70;5.77;;;;;;;17.37;56.07;101468.47;5036173;28;20184;-60
2021/08/21 04:21:05;;;;;;;15.47;6.13;;;;;;;17.46;56.10;101470.56;5058116;28;20204;-60
2021/08/21 04:23:30;;;;;;;12.73;6.10;;;;;;;17.49;55.82;101464.06;5054108;28;20215;-60
2021/08/21 04:25:59;;;;;;;10.80;5.50;;;;;;;17.42;55.69;101444.72;5054117;28;20267;-60
2021/08/21 04:28:30;;;;;;;11.07;5.90;;;;;;;17.80;55.30;101476.03;5064632;28;20187;-60
2021/08/21 04:30:57;;;;;;;16.47;7.00;;;;;;;17.85;55.15;101475.44;5074091;28;20168;-60
2021/08/21 04:33:22;;;;;;;11.23;6.13;;;;;;;17.92;55.33;101489.97;5041153;28;20191;-60
2021/08/21 04:35:48;;;;;;;16.90;6.70;;;;;;;17.65;55.58;101447.00;5053843;28;20205;-60
2021/08/21 04:38:14;;;;;;;14.47;6.53;;;;;;;17.81;55.14;101455.16;5036070;28;20183;-60
2021/08/21 04:40:40;;;;;;;15.70;6.57;;;;;;;18.13;55.40;101494.69;5066299;28;20206;-60
2021/08/21 04:43:05;;;;;;;12.90;5.90;;;;;;;18.23;55.33;101502.66;5073498;28;20311;-60
2021/08/21 04:45:31;;;;;;;15.63;6.77;;;;;;;18.34;55.12;101495.84;5073519;28;20194;-60
2021/08/21 04:47:56;;;;;;;12.80;6.53;;;;;;;18.08;55.13;101446.81;5073612;28;20175;-60
2021/08/21 04:50:22;;;;;;;12.33;6.30;;;;;;;18.23;54.94;101459.03;5072779;28;20176;-60
2021/08/21 04:52:48;;;;;;;10.77;5.97;;;;;;;18.66;55.30;101500.88;5073502;28;20228;-60
2021/08/21 04:55:13;;;;;;;14.20;6.00;;;;;;;18.30;55.06;101434.25;5073576;28;20193;-60
2021/08/21 04:57:39;;;;;;;17.13;6.53;;;;;;;18.86;55.01;101499.19;5073045;28;20178;-60
2021/08/21 05:00:06;;;;;;;17.23;6.40;;;;;;;18.95;55.38;101518.06;5073405;28;20219;-60
2021/08/21 05:02:31;;;;;;;15.70;7.07;;;;;;;19.07;55.98;101517.91;5073291;28;20171;-60
2021/08/21 05:04:56;;;;;;;19.13;7.10;;;;;;;18.83;56.26;101471.28;5058059;28;20259;-60
2021/08/21 05:07:22;;;;;;;13.67;6.83;;;;;;;19.16;55.53;101519.94;5052804;28;20180;-60
2021/08/21 05:09:48;;;;;;;15.10;6.20;;;;;;;19.37;56.79;101527.41;5070929;28;20171;-60
2021/08/21 05:12:13;;;;;;;15.13;6.20;;;;;;;19.44;56.62;101518.69;5073119;28;20262;-60
2021/08/21 05:14:39;;;;;;;11.00;6.20;;;;;;;19.46;55.42;101508.53;5073170;28;20176;-60
2021/08/21 05:17:05;;;;;;;11.73;6.20;;;;;;;19.43;55.10;101484.16;5056684;28;20662;-60
2021/08/21 05:19:34;;;;;;;11.27;5.93;;;;;;;19.61;52.86;101503.81;5053401;28;20176;-60
2021/08/21 05:24:44;;;;;;;10.33;6.17;;;;;;;19.95;50.99;101534.28;5053236;28;20181;-60
2021/08/21 05:27:10;;;;;;;12.33;5.80;;;;;;;19.97;51.32;101528.97;5052847;28;20173;-60
2021/08/21 05:29:36;;;;;;;11.40;6.03;;;;;;;20.23;51.30;101543.41;5053034;28;20183;-60
2021/08/21 05:32:02;;;;;;;8.80;5.73;;;;;;;20.24;50.66;101534.50;5052586;28;20177;-60
2021/08/21 05:34:27;;;;;;;12.47;6.53;;;;;;;20.43;50.58;101550.03;5052580;28;20188;-60
2021/08/21 05:36:53;;;;;;;13.80;5.80;;;;;;;20.19;50.58;101492.16;5052607;28;20181;-60
2021/08/21 05:39:18;;;;;;;14.70;6.30;;;;;;;20.30;50.36;101517.72;5052701;28;20728;-60
2021/08/21 05:41:44;;;;;;;12.20;5.90;;;;;;;20.69;50.49;101553.94;5052529;28;20205;-60
2021/08/21 05:44:09;;;;;;;11.33;5.50;;;;;;;20.79;49.35;101543.38;5054719;28;20222;-60
2021/08/21 05:46:34;;;;;;;12.40;6.03;;;;;;;20.90;49.13;101549.28;5052510;28;20183;-60
2021/08/21 05:49:00;;;;;;;9.63;5.30;;;;;;;21.07;49.30;101556.03;5052288;28;20175;-60
2021/08/21 05:51:28;;;;;;;11.67;6.17;;;;;;;21.09;49.35;101542.25;5054663;28;20192;-60
2021/08/21 05:53:54;;;;;;;13.67;5.90;;;;;;;21.05;48.67;101516.28;5072255;28;20736;-60
2021/08/21 05:56:19;;;;;;;11.50;5.60;;;;;;;21.38;48.70;101559.19;5072132;28;20199;-60
2021/08/21 05:58:45;;;;;;;10.73;5.40;;;;;;;21.21;48.19;101561.72;5072040;28;20194;-60
2021/08/21 06:01:10;;;;;;;9.80;5.40;;;;;;;21.28;48.87;101569.78;5072018;28;20219;-60
2021/08/21 06:03:36;;;;;;;8.63;5.03;;;;;;;21.39;47.73;101558.69;5071983;28;20176;-60
2021/08/21 06:06:01;;;;;;;11.50;4.97;;;;;;;21.43;48.51;101542.38;5072088;28;20609;-60
2021/08/21 06:08:26;;;;;;;14.07;5.23;;;;;;;21.62;47.40;101555.03;5071860;28;20719;-60
2021/08/21 06:10:54;;;;;;;13.20;4.97;;;;;;;21.74;47.30;101561.69;5071857;28;20183;-60
2021/08/21 06:13:20;;;;;;;9.57;5.20;;;;;;;21.77;47.82;101550.19;5071839;28;20237;-60
2021/08/21 06:15:46;;;;;;;12.50;5.13;;;;;;;21.75;47.29;101549.91;5066763;28;20601;-60
2021/08/21 06:18:11;;;;;;;9.43;4.90;;;;;;;21.87;47.10;101556.50;5051032;28;20547;-60
2021/08/21 06:20:37;;;;;;;6.23;4.40;;;;;;;21.94;47.07;101550.47;5051360;28;20227;-60
2021/08/21 06:23:02;;;;;;;9.27;4.50;;;;;;;21.84;45.98;101543.38;5051862;28;20183;-60
2021/08/21 06:25:27;;;;;;;8.43;4.73;;;;;;;22.02;46.66;101535.47;5051572;28;20186;-60
2021/08/21 06:27:53;;;;;;;20.73;5.40;;;;;;;22.14;46.78;101539.22;5057781;28;20193;-60
2021/08/21 06:30:19;;;;;;;6.70;4.70;;;;;;;21.97;46.31;101510.78;5071685;28;20163;-60
2021/08/21 06:32:44;;;;;;;8.73;4.83;;;;;;;22.06;47.20;101529.63;5071423;28;20187;-60
2021/08/21 06:35:10;;;;;;;6.40;4.47;;;;;;;22.07;47.00;101537.63;5071584;28;20225;-60
2021/08/21 06:37:36;;;;;;;8.67;4.57;;;;;;;21.86;46.44;101504.16;5071411;28;20645;-60
2021/08/21 06:40:02;;;;;;;6.97;4.30;;;;;;;22.05;44.15;101545.00;5063949;28;20203;-60
2021/08/21 06:42:28;;;;;;;7.60;4.30;;;;;;;21.96;44.12;101537.41;5051308;28;20176;-60
2021/08/21 06:44:53;;;;;;;6.60;3.80;;;;;;;22.03;44.59;101544.72;5050875;28;20631;-60
2021/08/21 06:47:19;;;;;;;9.83;4.53;;;;;;;22.00;45.48;101534.41;5049801;28;20184;-60
2021/08/21 06:49:44;;;;;;;8.63;4.00;;;;;;;22.20;45.56;101540.88;5051436;28;20183;-60
2021/08/21 06:52:10;;;;;;;7.63;4.00;;;;;;;22.45;45.27;101539.47;5044493;28;20177;-60
2021/08/21 06:54:35;;;;;;;6.60;4.13;;;;;;;22.41;44.14;101541.72;5051528;28;20653;-60
2021/08/21 06:57:01;;;;;;;7.53;4.73;;;;;;;22.29;43.59;101535.13;5051118;28;20720;-60
2021/08/21 06:59:26;;;;;;;7.03;4.33;;;;;;;22.45;44.11;101545.91;5051338;28;20262;-60
2021/08/21 07:01:52;;;;;;;6.70;4.00;;;;;;;22.54;43.68;101542.94;5050938;28;20317;-60
2021/08/21 07:04:17;;;;;;;7.23;3.67;;;;;;;22.65;43.38;101550.78;5060738;28;20647;-60
2021/08/21 07:06:43;;;;;;;7.40;3.87;;;;;;;22.75;43.49;101557.84;5071032;28;20514;-60
2021/08/21 07:09:09;;;;;;;6.07;4.10;;;;;;;22.91;43.31;101552.41;5055937;28;20210;-60
2021/08/21 07:11:34;;;;;;;7.20;3.70;;;;;;;22.70;42.90;101491.53;5056568;28;20715;-60
2021/08/21 07:13:59;;;;;;;6.80;4.10;;;;;;;23.23;42.15;101544.88;5059307;28;20184;-60
2021/08/21 07:16:25;;;;;;;8.37;3.80;;;;;;;23.37;41.50;101547.59;5044049;28;20203;-60
2021/08/21 07:18:51;;;;;;;8.30;3.60;;;;;;;23.08;42.28;101496.09;5054455;28;20191;-60
2021/08/21 07:21:16;;;;;;;6.30;3.70;;;;;;;23.49;41.51;101549.25;5056745;28;20282;-60
2021/08/21 07:23:42;;;;;;;8.13;4.00;;;;;;;23.53;41.13;101552.63;5060093;28;20267;-60
2021/08/21 07:26:08;;;;;;;5.57;3.70;;;;;;;23.62;40.84;101557.34;5058983;28;20194;-60
2021/08/21 07:28:33;;;;;;;8.37;3.73;;;;;;;23.75;41.49;101549.22;5048665;28;20192;-60
2021/08/21 07:31:00;;;;;;;6.87;4.27;;;;;;;23.96;40.40;101559.97;5059540;28;20168;-60
2021/08/21 07:33:27;;;;;;;8.33;3.90;;;;;;;24.05;40.04;101551.31;5048057;28;20180;-60
2021/08/21 07:35:52;;;;;;;7.57;3.60;;;;;;;24.31;39.66;101559.75;5058585;28;20666;-60
2021/08/21 07:38:18;;;;;;;5.47;3.70;;;;;;;24.48;38.89;101563.44;5064871;28;20199;-60
2021/08/21 07:40:44;;;;;;;5.80;3.40;;;;;;;24.55;38.87;101557.28;5060342;28;20204;-60
2021/08/21 07:43:09;;;;;;;7.97;3.87;;;;;;;24.04;39.08;101476.13;5065210;28;20216;-60
2021/08/21 07:45:35;;;;;;;6.63;3.73;;;;;;;24.62;38.97;101557.63;5059191;28;20714;-60
2021/08/21 07:48:00;;;;;;;7.43;3.57;;;;;;;24.79;37.73;101554.88;5062343;28;20681;-60
2021/08/21 07:50:26;;;;;;;7.03;3.67;;;;;;;24.51;37.37;101500.88;5063443;28;20208;-60
2021/08/21 07:52:51;;;;;;;6.00;4.10;;;;;;;24.72;36.86;101527.78;5051189;28;20184;-60
2021/08/21 07:55:17;;;;;;;8.83;4.00;;;;;;;25.08;37.05;101566.59;5062863;28;20183;-60
2021/08/21 07:57:42;;;;;;;9.33;4.10;;;;;;;25.24;37.39;101570.78;5064612;28;20618;-60
2021/08/21 08:00:08;;;;;;;6.27;3.90;;;;;;;25.24;36.29;101548.09;5066388;28;20208;-60
2021/08/21 08:02:34;;;;;;;6.07;3.73;;;;;;;25.07;36.50;101499.06;5061945;28;20232;-60
2021/08/21 08:05:00;;;;;;;5.97;3.73;;;;;;;25.66;36.84;101560.06;5061844;28;20261;-60
2021/08/21 08:07:25;;;;;;;7.43;4.07;;;;;;;25.72;35.49;101560.84;5058225;28;20184;-60
2021/08/21 08:09:51;;;;;;;6.50;3.90;;;;;;;25.60;35.88;101569.88;5057235;28;20181;-60
2021/08/21 08:12:17;;;;;;;7.60;4.37;;;;;;;25.70;36.09;101560.56;5063689;28;20195;-60
2021/08/21 08:14:42;;;;;;;5.67;4.00;;;;;;;25.90;36.49;101568.09;5066560;28;20257;-60
2021/08/21 08:17:08;;;;;;;8.73;3.87;;;;;;;25.76;35.22;101527.28;5066470;28;20680;-60
2021/08/21 08:19:34;;;;;;;9.40;4.57;;;;;;;25.61;34.75;101495.56;5064046;28;20688;-60
2021/08/21 08:22:00;;;;;;;6.33;4.30;;;;;;;26.22;35.80;101555.97;5066173;28;20172;-60
2021/08/21 08:24:25;;;;;;;8.23;4.70;;;;;;;26.37;34.74;101559.28;5053790;28;20176;-60
2021/08/21 08:26:51;;;;;;;5.80;4.50;;;;;;;26.20;34.36;101529.34;5054582;28;20184;-60
2021/08/21 08:29:17;;;;;;;6.90;4.40;;;;;;;26.52;35.08;101559.00;5060304;28;20259;-60
2021/08/21 08:31:42;;;;;;;7.10;4.30;;;;;;;26.48;34.26;101561.31;5061071;28;20669;-60
2021/08/21 08:34:08;;;;;;;7.30;4.17;;;;;;;26.56;33.87;101556.69;5061419;28;20182;-60
2021/08/21 08:36:33;;;;;;;6.67;3.80;;;;;;;26.70;33.87;101555.59;5064046;28;20607;-60
2021/08/21 08:38:58;;;;;;;11.20;4.60;;;;;;;26.79;33.07;101556.09;5063308;28;20593;-60
2021/08/21 08:41:24;;;;;;;8.90;4.53;;;;;;;26.79;33.55;101558.16;5056052;28;20208;-60
2021/08/21 08:43:51;;;;;;;8.30;4.10;;;;;;;26.84;33.87;101554.53;5052731;28;20224;-60
2021/08/21 08:46:20;;;;;;;5.50;4.33;;;;;;;26.75;33.62;101518.63;5053249;28;20172;-60
2021/08/21 08:48:47;;;;;;;10.50;4.30;;;;;;;26.79;33.44;101519.13;5053060;28;20176;-60
2021/08/21 08:51:13;;;;;;;8.63;4.13;;;;;;;27.14;32.91;101558.25;5053273;28;20234;-60
2021/08/21 08:53:39;;;;;;;9.43;4.50;;;;;;;26.94;33.24;101505.34;5053146;28;20176;-60
2021/08/21 08:56:04;;;;;;;6.10;3.80;;;;;;;27.38;31.88;101547.78;5056860;28;20262;-60
2021/08/21 08:58:30;;;;;;;7.93;4.20;;;;;;;27.54;32.61;101546.91;5073191;28;20176;-60
2021/08/21 09:00:56;;;;;;;10.43;4.27;;;;;;;27.50;33.67;101502.94;5073205;28;20223;-60
2021/08/21 09:03:26;;;;;;;6.67;4.70;;;;;;;27.99;31.40;101547.38;5073238;28;20179;-60
2021/08/21 09:05:53;;;;;;;5.88;3.95;;;;;;;28.21;30.70;101545.06;5073151;28;20653;-60
2021/08/21 09:08:26;;;;;;;9.20;4.37;;;;;;;27.99;31.46;101501.78;5073229;28;20179;-60
2021/08/21 09:10:52;;;;;;;7.13;4.20;;;;;;;28.28;30.66;101503.81;5073047;28;20176;-60
2021/08/21 09:13:19;;;;;;;5.45;3.97;;;;;;;28.41;30.27;101536.06;5073156;28;20233;-60
2021/08/21 09:15:58;;;;;;;11.88;4.55;;;;;;;28.48;30.06;101537.56;5073033;28;20203;-60
2021/08/21 09:18:27;;;;;;;8.30;4.17;;;;;;;28.57;30.22;101526.59;5054935;28;20179;-60
2021/08/21 09:20:58;;;;;;;8.68;4.25;;;;;;;28.83;29.84;101526.78;5062172;28;20207;-60
2021/08/21 09:23:25;;;;;;;8.55;4.30;;;;;;;29.01;30.34;101531.75;5053059;28;20175;-60
2021/08/21 09:26:10;;;;;;;12.57;3.97;;;;;;;29.06;29.26;101528.06;5052868;28;20202;-60
2021/08/21 09:28:44;;;;;;;7.32;3.65;;;;;;;28.90;29.33;101540.44;5053005;28;20635;-60
2021/08/21 09:31:13;;;;;;;4.85;3.30;;;;;;;28.99;29.47;101530.75;5052637;28;20153;-60
2021/08/21 09:33:54;;;;;;;5.53;3.50;;;;;;;28.91;29.20;101522.00;5052614;28;20566;-60
2021/08/21 09:36:34;;;;;;;8.48;3.70;;;;;;;29.11;29.50;101520.72;5052569;28;20176;-60
2021/08/21 09:39:06;;;;;;;8.55;3.47;;;;;;;28.93;29.42;101473.75;5052566;28;20183;-60
2021/08/21 09:41:50;;;;;;;6.87;4.27;;;;;;;29.46;28.55;101521.25;5052321;28;20227;-60
2021/08/21 09:44:28;;;;;;;6.22;3.78;;;;;;;29.56;29.31;101510.97;5057705;28;20215;-60
2021/08/21 09:47:23;;;;;;;6.50;3.80;;;;;;;29.65;27.74;101524.88;5054441;28;20175;-60
2021/08/21 09:49:50;;;;;;;6.80;2.90;;;;;;;29.68;27.53;101520.16;5070024;28;20596;-60
2021/08/21 09:52:17;;;;;;;6.28;2.83;;;;;;;29.91;27.32;101519.22;5071323;28;20171;-60
2021/08/21 09:55:06;;;;;;;4.55;2.95;;;;;;;30.34;27.66;101516.09;5072000;28;20179;-60
2021/08/21 09:57:32;;;;;;;7.57;3.55;;;;;;;30.14;28.11;101453.88;5068834;28;20692;-61
2021/08/21 10:00:02;;;;;;;4.95;3.10;;;;;;;30.53;25.51;101516.78;5072512;28;20200;-60
2021/08/21 10:02:32;;;;;;;5.15;3.10;;;;;;;30.67;25.77;101507.69;5072027;28;20187;-60
2021/08/21 10:04:58;;;;;;;5.65;3.20;;;;;;;30.61;26.06;101509.84;5072026;28;20653;-60
2021/08/21 10:07:28;;;;;;;5.03;2.50;;;;;;;30.25;25.57;101477.28;5071913;28;20206;-60
2021/08/21 10:09:55;;;;;;;5.57;2.85;;;;;;;30.42;26.16;101514.94;5052618;28;20241;-60
2021/08/21 10:12:22;;;;;;;4.45;2.20;;;;;;;30.47;24.97;101516.13;5051995;28;20802;-60
2021/08/21 10:14:50;;;;;;;5.03;2.47;;;;;;;30.50;25.62;101510.06;5051826;28;20177;-60
2021/08/21 10:17:19;;;;;;;4.90;2.80;;;;;;;30.58;25.36;101496.66;5052174;28;20183;-60
2021/08/21 10:19:49;;;;;;;8.43;2.97;;;;;;;30.40;26.15;101473.91;5051784;28;20176;-60
2021/08/21 10:22:18;;;;;;;6.10;3.00;;;;;;;30.58;26.36;101510.97;5051874;28;20172;-60
2021/08/21 10:24:47;;;;;;;4.63;2.50;;;;;;;30.27;26.40;101511.06;5034161;28;20210;-60
2021/08/21 10:27:48;;;;;;;4.63;2.65;;;;;;;30.53;26.19;101508.19;5051805;28;20707;-60
2021/08/21 10:30:20;;;;;;;4.13;2.72;;;;;;;30.36;25.31;101502.81;5037304;28;20197;-60
2021/08/21 10:32:58;;;;;;;6.05;2.70;;;;;;;30.39;25.61;101492.34;5061086;28;20256;-60
2021/08/21 10:35:42;;;;;;;6.18;2.97;;;;;;;30.69;25.43;101496.44;5071663;28;20677;-60
2021/08/21 10:38:33;;;;;;;5.47;2.80;;;;;;;30.77;25.31;101485.09;5053849;28;20259;-60
2021/08/21 10:40:59;;;;;;;7.07;2.80;;;;;;;30.94;25.94;101496.94;5071654;28;20202;-60
2021/08/21 10:43:50;;;;;;;3.50;2.63;;;;;;;31.06;24.26;101476.09;5071308;28;20227;-61
2021/08/21 10:46:31;;;;;;;6.18;2.72;;;;;;;31.24;25.08;101475.19;5051576;28;20188;-61
2021/08/21 10:48:57;;;;;;;2.85;2.20;;;;;;;31.14;25.51;101487.66;5051595;28;20176;-61
2021/08/21 10:51:40;;;;;;;5.32;2.60;;;;;;;31.39;25.46;101483.97;5051305;28;20184;-61
2021/08/21 10:54:24;;;;;;;7.25;2.42;;;;;;;31.70;24.06;101480.06;5050658;28;20177;-61
2021/08/21 10:56:50;;;;;;;5.85;2.60;;;;;;;31.68;23.74;101473.34;5033352;28;20187;-61
2021/08/21 10:59:44;;;;;;;3.53;2.30;;;;;;;31.41;25.06;101481.28;5051402;28;20179;-60
2021/08/21 11:02:32;;;;;;;5.22;2.55;;;;;;;31.48;25.01;101476.97;5051506;28;20184;-61
2021/08/21 11:04:59;;;;;;;4.32;2.50;;;;;;;31.54;24.60;101472.66;5050786;28;20214;-61
2021/08/21 11:07:33;;;;;;;5.03;2.70;;;;;;;31.46;24.35;101476.75;5051566;28;20187;-61
2021/08/21 11:10:26;;;;;;;5.00;2.50;;;;;;;31.49;24.52;101470.69;5051108;28;20184;-61
2021/08/21 11:12:54;;;;;;;6.28;2.45;;;;;;;32.01;24.87;101470.41;5051073;28;20240;-61
2021/08/21 11:15:30;;;;;;;7.05;2.58;;;;;;;32.37;24.58;101479.06;5033107;28;20176;-61
2021/08/21 11:17:56;;;;;;;3.33;2.30;;;;;;;32.16;23.43;101464.00;5050760;28;20597;-61
2021/08/21 11:20:25;;;;;;;6.45;2.70;;;;;;;31.88;23.20;101464.00;5057116;28;20205;-61
2021/08/21 11:23:20;;;;;;;3.88;2.03;;;;;;;31.61;24.22;101469.06;5071189;28;20184;-60
2021/08/21 11:25:46;;;;;;;4.30;2.53;;;;;;;31.57;24.80;101462.91;5057563;28;20191;-61